Time;durP1;ratioP1;P1;durP2;ratioP2;P2;SDS_P1;SDS_P2;PMS_P1;PMS_P2;Temp;Humidity;BMP_temperature;BMP_pressure;BME280_temperature;BME280_humidity;BME280_pressure;Samples;Min_cycle;Max_cycle;Signal;HPM_P1;HPM_P2
2023/05/29 00:01:40;;;;;;;5.50;3.50;;;;;;;12.28;54.77;99626.59;105607;1254;61257;-69
2023/05/29 00:04:07;;;;;;;6.40;3.40;;;;;;;12.80;52.70;99632.26;105666;1258;74652;-69
2023/05/29 00:06:36;;;;;;;9.60;3.80;;;;;;;13.26;50.55;99634.33;105689;1259;69179;-71
2023/05/29 00:09:03;;;;;;;8.90;3.90;;;;;;;13.34;50.08;99636.73;105582;1256;73162;-69
2023/05/29 00:11:31;;;;;;;7.50;3.50;;;;;;;13.46;49.55;99638.15;105583;1257;61221;-70
2023/05/29 00:13:59;;;;;;;7.90;3.20;;;;;;;12.21;54.63;99636.88;105573;1253;61272;-68
2023/05/29 00:16:26;;;;;;;5.90;3.40;;;;;;;12.17;55.73;99636.23;105676;1257;74890;-71
2023/05/29 00:18:55;;;;;;;7.40;3.90;;;;;;;12.29;55.08;99637.74;105639;1259;68743;-71
2023/05/29 00:21:22;;;;;;;11.60;4.40;;;;;;;10.50;64.56;99629.16;105830;1254;73023;-73
2023/05/29 00:23:49;;;;;;;9.60;3.40;;;;;;;11.78;59.42;99635.27;105686;1254;61268;-70
2023/05/29 00:26:16;;;;;;;11.90;3.90;;;;;;;12.16;57.30;99638.55;105756;1253;61295;-71
2023/05/29 00:28:45;;;;;;;6.70;4.10;;;;;;;11.98;57.33;99633.50;105638;1259;74409;-70
2023/05/29 00:31:13;;;;;;;;;;;;;;;12.08;57.29;99634.48;105774;1259;67376;-69
2023/05/29 00:33:40;;;;;;;13.00;4.00;;;;;;;11.98;57.51;99627.80;105639;1257;72953;-71
2023/05/29 00:36:08;;;;;;;6.20;3.90;;;;;;;12.31;56.43;99630.29;105742;1253;61241;-71
2023/05/29 00:38:35;;;;;;;5.90;3.30;;;;;;;12.12;56.96;99627.28;105709;1254;61241;-70
2023/05/29 00:41:02;;;;;;;8.10;3.30;;;;;;;11.84;58.60;99622.50;105682;1258;74521;-71
2023/05/29 00:43:30;;;;;;;15.40;3.90;;;;;;;11.85;59.09;99625.89;105812;1253;69181;-73
2023/05/29 00:45:57;;;;;;;5.70;3.80;;;;;;;10.80;64.20;99620.56;105752;1254;72496;-70
2023/05/29 00:48:24;;;;;;;5.30;3.70;;;;;;;9.93;71.52;99616.00;105751;1254;61263;-69
2023/05/29 00:50:51;;;;;;;7.40;3.80;;;;;;;9.24;78.53;99615.54;105690;1253;61264;-69
2023/05/29 00:53:18;;;;;;;6.70;3.90;;;;;;;9.96;75.15;99618.72;105638;1259;75045;-72
2023/05/29 00:55:45;;;;;;;8.50;4.30;;;;;;;8.92;82.06;99618.20;105776;1253;68690;-68
2023/05/29 00:58:12;;;;;;;8.60;4.10;;;;;;;9.85;77.60;99619.43;105509;1254;72551;-70
2023/05/29 01:00:39;;;;;;;9.60;3.90;;;;;;;9.12;82.66;99617.20;105779;1254;61243;-71
2023/05/29 01:03:06;;;;;;;5.90;3.60;;;;;;;9.62;78.86;99618.88;105497;1253;61301;-77
2023/05/29 01:05:34;;;;;;;6.30;4.20;;;;;;;8.76;86.57;99616.42;105639;1258;74513;-70
2023/05/29 01:08:02;;;;;;;4.90;3.30;;;;;;;9.91;79.37;99623.05;105746;1253;68416;-70
2023/05/29 01:10:31;;;;;;;5.30;4.20;;;;;;;9.97;79.23;99625.96;105723;1259;72415;-70
2023/05/29 01:13:08;;;;;;;5.60;3.70;;;;;;;9.29;85.89;99621.30;105571;1254;61354;-71
2023/05/29 01:15:38;;;;;;;7.10;4.70;;;;;;;10.03;79.93;99626.48;105845;1254;61253;-68
2023/05/29 01:18:10;;;;;;;7.30;4.70;;;;;;;10.30;78.51;99632.44;105754;1258;74353;-69
2023/05/29 01:20:44;;;;;;;6.10;4.30;;;;;;;10.62;76.14;99635.92;105777;1253;69155;-73
2023/05/29 01:23:19;;;;;;;4.90;4.20;;;;;;;10.78;73.70;99634.64;105808;1259;72543;-73
2023/05/29 01:25:56;;;;;;;9.50;4.70;;;;;;;10.88;72.68;99636.63;105756;1254;62253;-70
2023/05/29 01:28:26;;;;;;;5.60;5.00;;;;;;;11.24;70.96;99637.81;105651;1253;61320;-68
2023/05/29 01:30:54;;;;;;;9.20;5.60;;;;;;;11.30;70.14;99642.70;105751;1254;74532;-70
2023/05/29 01:33:21;;;;;;;27.40;4.90;;;;;;;11.06;71.80;99635.02;105303;1254;68659;-69
2023/05/29 01:35:50;;;;;;;7.20;4.90;;;;;;;11.24;71.08;99639.69;105226;1265;72595;-70
2023/05/29 01:38:17;;;;;;;4.90;4.10;;;;;;;11.40;70.28;99641.98;105638;1254;61326;-72
2023/05/29 01:40:44;;;;;;;11.40;5.10;;;;;;;11.21;70.34;99644.40;105633;1254;62186;-71
2023/05/29 01:43:11;;;;;;;17.40;5.20;;;;;;;11.19;70.71;99644.65;105749;1260;75070;-68
2023/05/29 01:45:38;;;;;;;15.90;5.30;;;;;;;11.39;69.46;99643.04;105654;1262;68854;-69
2023/05/29 01:48:06;;;;;;;17.10;4.60;;;;;;;11.33;69.80;99644.02;105638;1254;72623;-69
2023/05/29 01:50:36;;;;;;;20.90;6.40;;;;;;;11.55;68.34;99646.55;105659;1260;61402;-70
2023/05/29 01:53:03;;;;;;;12.30;5.70;;;;;;;11.86;66.36;99646.23;105702;1254;61249;-70
2023/05/29 01:55:30;;;;;;;9.40;5.40;;;;;;;11.84;65.98;99649.02;105644;1259;74864;-68
2023/05/29 01:57:57;;;;;;;21.50;5.70;;;;;;;11.84;66.62;99649.84;105684;1254;68708;-70
2023/05/29 02:00:24;;;;;;;15.50;6.30;;;;;;;11.82;66.39;99648.73;105703;1261;72659;-73
2023/05/29 02:02:52;;;;;;;15.00;5.20;;;;;;;8.57;88.85;99637.38;105737;1253;61248;-70
2023/05/29 02:05:19;;;;;;;19.40;6.50;;;;;;;7.90;99.62;99639.30;105641;1254;61420;-70
2023/05/29 02:07:46;;;;;;;14.50;5.50;;;;;;;9.67;87.92;99644.26;105569;1259;75062;-68
2023/05/29 02:10:13;;;;;;;14.90;5.30;;;;;;;10.28;81.23;99646.40;105711;1253;68507;-68
2023/05/29 02:12:40;;;;;;;19.00;7.00;;;;;;;10.57;78.58;99644.46;105722;1253;73285;-69
2023/05/29 02:15:08;;;;;;;21.10;6.50;;;;;;;10.81;76.01;99648.36;105603;1254;61282;-68
2023/05/29 02:17:36;;;;;;;;;;;;;;;9.78;84.62;99646.70;105707;1254;61349;-69
2023/05/29 02:20:04;;;;;;;15.90;5.70;;;;;;;10.58;78.67;99652.36;105339;1263;75467;-70
2023/05/29 02:22:31;;;;;;;16.00;6.30;;;;;;;8.87;90.56;99651.50;105475;1253;68846;-72
2023/05/29 02:24:58;;;;;;;14.30;6.00;;;;;;;8.40;99.24;99651.67;105687;1257;72978;-69
2023/05/29 02:27:26;;;;;;;16.60;5.70;;;;;;;10.14;86.19;99649.86;105714;1255;62263;-69
2023/05/29 02:29:52;;;;;;;21.80;6.10;;;;;;;9.17;91.92;99648.08;105654;1254;61251;-70
2023/05/29 02:32:22;;;;;;;10.20;5.80;;;;;;;9.17;95.58;99644.64;105775;1258;75097;-69
2023/05/29 02:34:52;;;;;;;14.20;5.20;;;;;;;10.69;82.19;99647.44;105650;1261;67219;-69
2023/05/29 02:37:19;;;;;;;;;;;;;;;9.68;87.26;99643.98;105664;1253;72575;-69
2023/05/29 02:39:46;;;;;;;15.60;5.10;;;;;;;9.72;91.25;99646.65;105689;1254;61298;-69
2023/05/29 02:42:13;;;;;;;8.80;4.30;;;;;;;10.92;80.47;99646.92;105647;1254;62238;-68
2023/05/29 02:44:40;;;;;;;11.40;5.10;;;;;;;11.63;74.59;99654.47;105777;1254;74494;-71
2023/05/29 02:47:09;;;;;;;11.20;5.40;;;;;;;11.96;70.73;99654.61;105599;1254;68683;-72
2023/05/29 02:49:36;;;;;;;10.70;6.80;;;;;;;12.05;69.81;99658.41;105803;1254;72446;-70
2023/05/29 02:52:03;;;;;;;12.20;5.80;;;;;;;10.92;75.30;99654.71;105715;1254;61598;-70
2023/05/29 02:54:30;;;;;;;11.30;6.10;;;;;;;10.17;83.76;99652.58;105682;1254;61209;-77
2023/05/29 02:56:56;;;;;;;9.30;5.70;;;;;;;10.13;84.19;99651.52;105713;1262;75033;-69
2023/05/29 02:59:23;;;;;;;24.70;7.90;;;;;;;10.23;84.53;99653.52;105636;1258;67340;-72
2023/05/29 03:01:51;;;;;;;12.40;7.30;;;;;;;10.48;81.91;99657.19;105616;1256;73063;-69
2023/05/29 03:04:18;;;;;;;14.20;6.20;;;;;;;10.92;78.93;99656.45;105684;1254;61682;-69
2023/05/29 03:06:45;;;;;;;8.60;5.60;;;;;;;12.47;67.13;99666.73;105690;1254;61332;-76
2023/05/29 03:09:13;;;;;;;13.40;5.90;;;;;;;13.29;61.49;99666.55;105721;1259;75047;-70
2023/05/29 03:11:40;;;;;;;12.00;6.70;;;;;;;13.57;58.53;99667.49;105779;1254;69080;-70
2023/05/29 03:14:08;;;;;;;12.50;6.60;;;;;;;11.73;67.94;99663.08;105676;1260;72945;-70
2023/05/29 03:16:38;;;;;;;11.70;7.20;;;;;;;11.56;69.95;99661.92;105689;1253;61409;-69
2023/05/29 03:19:05;;;;;;;13.90;7.10;;;;;;;11.64;69.87;99664.03;105711;1254;61334;-70
2023/05/29 03:21:33;;;;;;;15.40;8.80;;;;;;;13.57;59.78;99674.96;105619;1261;75391;-68
2023/05/29 03:24:00;;;;;;;21.10;9.90;;;;;;;12.89;60.57;99674.48;105657;1259;68459;-70
2023/05/29 03:26:27;;;;;;;24.90;9.70;;;;;;;13.70;56.68;99678.77;105586;1257;72554;-70
2023/05/29 03:28:55;;;;;;;23.70;11.20;;;;;;;13.75;57.13;99682.17;105459;1254;61283;-76
2023/05/29 03:31:22;;;;;;;15.90;8.30;;;;;;;14.44;53.99;99685.84;105691;1255;61206;-69
2023/05/29 03:33:49;;;;;;;26.30;9.70;;;;;;;15.06;50.91;99694.35;105769;1255;72309;-70
2023/05/29 03:36:31;;;;;;;21.20;9.50;;;;;;;14.74;51.37;99691.87;105769;1259;68381;-69
2023/05/29 03:38:58;;;;;;;;;;;;;;;14.65;52.80;99689.66;105579;1262;73190;-71
2023/05/29 03:41:26;;;;;;;15.50;8.00;;;;;;;15.60;49.16;99697.48;105787;1254;61352;-72
2023/05/29 03:43:55;;;;;;;16.40;8.60;;;;;;;16.09;47.42;99698.86;105635;1254;63354;-72
2023/05/29 03:46:23;;;;;;;25.30;10.10;;;;;;;13.53;55.68;99689.92;105743;1259;74713;-70
2023/05/29 03:48:50;;;;;;;22.10;10.50;;;;;;;12.87;61.64;99689.05;105740;1254;68477;-71
2023/05/29 03:51:18;;;;;;;22.90;10.30;;;;;;;14.86;53.72;99690.23;105668;1260;71579;-69
2023/05/29 03:53:45;;;;;;;26.70;10.70;;;;;;;14.59;54.17;99687.08;105681;1259;61234;-71
2023/05/29 03:56:13;;;;;;;29.10;11.50;;;;;;;15.37;51.67;99695.22;105737;1253;61317;-75
2023/05/29 03:58:40;;;;;;;23.30;11.20;;;;;;;16.35;48.85;99697.98;105820;1259;74438;-73
2023/05/29 04:01:08;;;;;;;24.60;9.80;;;;;;;16.72;47.90;99698.61;105786;1259;67219;-71
2023/05/29 04:03:36;;;;;;;23.50;7.90;;;;;;;17.12;46.29;99697.17;105429;1265;72704;-71
2023/05/29 04:06:03;;;;;;;17.10;8.00;;;;;;;17.39;45.31;99704.41;105753;1254;61388;-70
2023/05/29 04:08:30;;;;;;;13.00;6.90;;;;;;;17.58;44.62;99704.92;105752;1258;61233;-70
2023/05/29 04:10:57;;;;;;;10.90;6.30;;;;;;;17.80;44.32;99707.30;105696;1257;133838;-72
2023/05/29 04:13:24;;;;;;;11.10;5.90;;;;;;;18.35;43.38;99708.39;105843;1254;68675;-72
2023/05/29 04:15:52;;;;;;;10.70;4.00;;;;;;;18.79;42.53;99704.95;105701;1254;72191;-69
2023/05/29 04:18:20;;;;;;;10.50;3.80;;;;;;;18.52;42.37;99704.11;105746;1254;61251;-74
2023/05/29 04:20:47;;;;;;;7.40;4.00;;;;;;;18.49;42.47;99712.23;105754;1257;62241;-70
2023/05/29 04:23:16;;;;;;;5.00;3.60;;;;;;;18.43;42.27;99709.91;105815;1258;74409;-71
2023/05/29 04:25:43;;;;;;;5.30;3.50;;;;;;;18.59;42.01;99715.95;105764;1254;67585;-74
2023/05/29 04:28:13;;;;;;;11.70;3.60;;;;;;;19.12;41.26;99713.14;105772;1259;72565;-77
2023/05/29 04:30:41;;;;;;;10.20;3.70;;;;;;;19.44;40.70;99713.95;105696;1260;61292;-71
2023/05/29 04:33:12;;;;;;;6.80;3.90;;;;;;;19.49;40.52;99713.92;105798;1260;61311;-70
2023/05/29 04:35:42;;;;;;;14.80;4.10;;;;;;;19.80;39.67;99718.48;105429;1263;74438;-73
2023/05/29 04:38:10;;;;;;;8.00;3.60;;;;;;;19.73;39.81;99718.81;105837;1258;67232;-73
2023/05/29 04:40:37;;;;;;;13.80;4.20;;;;;;;19.77;39.84;99722.21;105734;1260;72619;-73
2023/05/29 04:43:05;;;;;;;8.50;3.40;;;;;;;20.31;38.94;99727.50;105788;1254;61399;-75
2023/05/29 04:45:44;;;;;;;15.60;3.30;;;;;;;20.23;38.62;99734.66;105752;1256;61177;-74
2023/05/29 04:48:12;;;;;;;7.60;3.60;;;;;;;20.61;38.40;99735.62;105767;1260;74535;-71
2023/05/29 04:50:38;;;;;;;13.10;3.50;;;;;;;20.83;37.36;99731.33;105793;1254;68329;-72
2023/05/29 04:53:05;;;;;;;10.90;3.30;;;;;;;20.87;37.30;99725.14;105725;1260;71638;-73
2023/05/29 04:55:32;;;;;;;7.70;3.90;;;;;;;21.12;36.81;99728.36;105809;1254;61329;-73
2023/05/29 04:58:00;;;;;;;9.20;3.60;;;;;;;21.33;36.16;99724.31;105419;1254;61516;-71
2023/05/29 05:00:27;;;;;;;10.50;4.00;;;;;;;21.83;35.56;99731.55;105784;1254;74506;-73
2023/05/29 05:02:54;;;;;;;8.00;2.90;;;;;;;21.97;35.46;99729.86;105771;1259;68780;-71
2023/05/29 05:05:21;;;;;;;10.10;3.50;;;;;;;21.89;35.34;99729.16;105706;1259;73436;-73
2023/05/29 05:07:49;;;;;;;9.30;3.10;;;;;;;22.10;34.81;99726.33;105730;1259;61313;-72
2023/05/29 05:10:16;;;;;;;5.80;3.50;;;;;;;22.20;34.89;99725.10;105509;1254;61261;-73
2023/05/29 05:12:44;;;;;;;3.70;2.80;;;;;;;20.50;37.37;99716.57;105774;1258;74603;-72
2023/05/29 05:15:11;;;;;;;11.60;3.40;;;;;;;19.31;39.29;99711.02;105777;1260;68561;-72
2023/05/29 05:17:38;;;;;;;3.80;2.40;;;;;;;20.37;37.76;99715.80;105736;1259;72541;-72
2023/05/29 05:20:06;;;;;;;10.80;3.30;;;;;;;20.97;37.13;99717.58;105770;1259;61237;-72
2023/05/29 05:22:35;;;;;;;4.30;3.30;;;;;;;21.54;36.31;99722.27;105819;1254;61260;-73
2023/05/29 05:25:03;;;;;;;10.10;4.50;;;;;;;22.29;35.53;99727.44;105770;1259;74582;-71
2023/05/29 05:27:32;;;;;;;7.30;4.30;;;;;;;22.95;34.45;99732.11;105931;1253;68572;-72
2023/05/29 05:29:58;;;;;;;7.80;3.30;;;;;;;23.28;34.12;99735.95;105725;1259;71470;-74
2023/05/29 05:32:25;;;;;;;5.40;3.40;;;;;;;23.47;33.58;99734.87;105816;1255;61397;-72
2023/05/29 05:34:58;;;;;;;6.40;3.00;;;;;;;23.43;33.73;99736.03;105805;1254;61266;-73
2023/05/29 05:37:25;;;;;;;8.80;2.70;;;;;;;23.92;33.53;99738.74;105832;1259;74278;-73
2023/05/29 05:39:54;;;;;;;6.00;3.00;;;;;;;24.27;32.94;99744.95;105768;1259;67380;-73
2023/05/29 05:42:21;;;;;;;8.60;3.00;;;;;;;23.69;33.24;99741.73;105799;1255;72435;-71
2023/05/29 05:44:52;;;;;;;3.50;2.40;;;;;;;23.21;33.10;99744.91;105782;1258;62945;-70
2023/05/29 05:47:19;;;;;;;10.10;2.70;;;;;;;23.21;32.95;99744.77;105716;1254;61272;-72
2023/05/29 05:49:46;;;;;;;3.10;2.50;;;;;;;23.33;32.81;99745.77;105746;1254;72165;-73
2023/05/29 05:52:12;;;;;;;2.70;2.20;;;;;;;23.30;33.12;99748.55;105785;1263;67668;-71
2023/05/29 05:54:39;;;;;;;8.40;3.50;;;;;;;23.49;33.24;99747.99;105722;1260;72556;-73
2023/05/29 05:57:07;;;;;;;6.20;3.00;;;;;;;23.87;32.54;99749.86;105612;1258;61350;-70
2023/05/29 05:59:35;;;;;;;7.30;3.00;;;;;;;24.21;32.00;99749.61;105815;1254;61276;-73
2023/05/29 06:02:03;;;;;;;8.80;3.80;;;;;;;24.80;31.91;99755.62;105789;1258;74529;-73
2023/05/29 06:04:32;;;;;;;7.60;3.60;;;;;;;25.36;31.22;99753.79;105810;1254;68317;-72
2023/05/29 06:06:59;;;;;;;7.20;2.80;;;;;;;25.50;30.49;99757.19;105710;1260;72637;-72
2023/05/29 06:09:26;;;;;;;8.50;2.80;;;;;;;25.54;30.47;99756.54;105703;1257;62354;-73
2023/05/29 06:11:55;;;;;;;3.50;2.30;;;;;;;25.89;30.08;99759.32;105776;1259;61307;-69
2023/05/29 06:14:23;;;;;;;3.90;2.40;;;;;;;26.11;29.70;99761.48;105711;1262;74665;-72
2023/05/29 06:16:50;;;;;;;6.80;2.40;;;;;;;26.36;29.89;99765.80;105732;1259;68394;-75
2023/05/29 06:19:17;;;;;;;13.90;2.80;;;;;;;26.61;29.21;99763.70;105791;1260;72430;-72
2023/05/29 06:21:52;;;;;;;7.30;2.40;;;;;;;26.44;29.26;99759.79;105746;1254;61285;-71
2023/05/29 06:24:21;;;;;;;2.90;2.10;;;;;;;26.45;29.43;99759.58;105826;1262;61154;-69
2023/05/29 06:27:08;;;;;;;3.70;2.40;;;;;;;26.41;29.35;99765.68;105638;1262;74463;-70
2023/05/29 06:29:37;;;;;;;5.00;2.40;;;;;;;26.57;29.35;99765.88;105743;1256;68631;-73
2023/05/29 06:32:06;;;;;;;5.20;2.70;;;;;;;26.87;28.97;99768.47;105808;1260;72471;-71
2023/05/29 06:34:32;;;;;;;3.20;1.80;;;;;;;26.84;28.31;99770.20;105717;1257;61268;-73
2023/05/29 06:36:59;;;;;;;5.20;2.50;;;;;;;26.95;28.92;99766.60;105729;1258;61176;-72
2023/05/29 06:39:26;;;;;;;4.90;3.10;;;;;;;27.29;28.85;99764.69;105752;1259;74641;-71
2023/05/29 06:41:53;;;;;;;7.70;2.70;;;;;;;27.39;27.82;99766.33;105694;1261;68670;-71
2023/05/29 06:44:20;;;;;;;3.20;2.00;;;;;;;27.23;27.80;99767.89;105733;1258;71436;-70
2023/05/29 06:46:47;;;;;;;3.80;2.30;;;;;;;27.24;27.64;99772.39;105665;1257;61343;-75
2023/05/29 06:49:15;;;;;;;;;;;;;;;27.24;26.11;99771.60;105637;1260;61443;-72
2023/05/29 06:51:43;;;;;;;4.80;2.50;;;;;;;27.46;25.79;99773.87;105744;1260;74584;-71
2023/05/29 06:54:24;;;;;;;5.00;2.50;;;;;;;27.61;24.99;99778.90;105811;1263;68568;-72
2023/05/29 06:56:51;;;;;;;4.40;2.30;;;;;;;27.57;25.27;99777.02;105765;1260;72782;-72
2023/05/29 06:59:36;;;;;;;5.80;3.50;;;;;;;27.93;24.71;99777.97;105815;1259;61419;-72
2023/05/29 07:02:03;;;;;;;7.50;3.10;;;;;;;27.90;23.06;99773.98;105773;1257;61304;-71
2023/05/29 07:04:30;;;;;;;6.20;3.60;;;;;;;27.74;22.62;99775.94;105794;1262;74551;-73
2023/05/29 07:06:58;;;;;;;;;;;;;;;27.57;21.82;99776.07;105860;1260;68557;-72
2023/05/29 07:09:26;;;;;;;6.40;2.80;;;;;;;27.72;22.18;99769.45;105897;1259;72758;-74
2023/05/29 07:11:54;;;;;;;6.30;2.40;;;;;;;27.77;22.04;99771.11;105822;1255;61315;-71
2023/05/29 07:14:23;;;;;;;4.40;2.80;;;;;;;27.58;22.44;99768.45;105862;1254;61548;-69
2023/05/29 07:16:50;;;;;;;5.70;2.60;;;;;;;27.50;22.35;99766.25;105658;1261;74618;-76
2023/05/29 07:19:17;;;;;;;4.40;2.30;;;;;;;27.75;22.15;99768.48;105942;1258;68940;-73
2023/05/29 07:21:49;;;;;;;12.50;3.00;;;;;;;28.23;22.39;99768.20;105849;1260;71411;-73
2023/05/29 07:24:18;;;;;;;6.00;2.70;;;;;;;28.58;22.37;99762.36;105779;1264;61299;-72
2023/05/29 07:26:45;;;;;;;6.00;3.00;;;;;;;28.35;22.19;99761.17;105906;1254;61293;-72
2023/05/29 07:29:13;;;;;;;3.30;2.50;;;;;;;28.22;22.41;99766.20;105872;1259;74366;-72
2023/05/29 07:31:40;;;;;;;11.00;3.70;;;;;;;28.53;21.95;99762.88;105753;1260;68387;-75
2023/05/29 07:34:07;;;;;;;4.80;2.70;;;;;;;28.39;21.75;99756.80;105999;1257;72590;-79
2023/05/29 07:36:35;;;;;;;;;;;;;;;28.28;22.10;99761.74;106032;1257;61232;-74
2023/05/29 07:39:05;;;;;;;3.40;2.40;;;;;;;28.66;21.83;99760.96;105922;1255;61239;-73
2023/05/29 07:41:34;;;;;;;10.90;4.20;;;;;;;29.40;21.20;99761.81;106476;1257;75054;-75
2023/05/29 07:44:00;;;;;;;8.00;3.20;;;;;;;29.69;20.66;99760.90;106055;1260;67525;-74
2023/05/29 07:46:27;;;;;;;5.00;2.60;;;;;;;29.71;20.67;99761.10;105681;1260;72620;-78
2023/05/29 07:49:03;;;;;;;5.90;2.70;;;;;;;29.42;20.52;99759.69;105773;1258;61262;-76
2023/05/29 07:51:30;;;;;;;5.60;2.60;;;;;;;29.28;21.06;99760.14;105797;1263;61342;-73
2023/05/29 07:53:57;;;;;;;5.30;2.70;;;;;;;29.69;20.95;99764.38;105801;1272;74574;-70
2023/05/29 07:56:25;;;;;;;4.80;3.40;;;;;;;30.07;20.21;99769.20;105681;1263;68478;-76
2023/05/29 07:58:54;;;;;;;4.80;3.30;;;;;;;30.03;20.26;99768.21;105780;1260;72409;-73
2023/05/29 08:01:21;;;;;;;9.20;3.40;;;;;;;29.54;20.91;99764.02;107241;1257;61427;-70
2023/05/29 08:03:52;;;;;;;4.40;3.00;;;;;;;29.86;20.58;99766.86;108711;1256;59612;-70
2023/05/29 08:06:27;;;;;;;5.20;2.80;;;;;;;29.77;20.40;99764.94;108959;1257;73613;-68
2023/05/29 08:08:56;;;;;;;3.60;3.10;;;;;;;29.64;20.25;99756.89;108850;1257;67542;-68
2023/05/29 08:11:23;;;;;;;4.10;2.70;;;;;;;29.49;20.17;99754.41;108704;1257;72010;-69
2023/05/29 08:13:50;;;;;;;3.00;2.40;;;;;;;29.57;20.25;99753.63;109013;1257;61190;-70
2023/05/29 08:16:17;;;;;;;3.80;2.80;;;;;;;29.61;20.46;99747.84;108878;1258;59246;-70
2023/05/29 08:18:45;;;;;;;;;;;;;;;29.86;19.84;99749.48;108804;1257;74253;-68
2023/05/29 08:21:13;;;;;;;3.90;2.60;;;;;;;29.85;19.60;99752.86;109019;1253;67410;-69
2023/05/29 08:23:39;;;;;;;5.20;2.80;;;;;;;30.24;19.34;99752.00;109151;1254;72216;-72
2023/05/29 08:26:06;;;;;;;8.70;3.00;;;;;;;30.34;19.46;99747.80;108974;1255;59807;-69
2023/05/29 08:28:33;;;;;;;4.90;2.70;;;;;;;30.50;19.19;99747.38;109009;1253;59688;-70
2023/05/29 08:31:03;;;;;;;5.40;3.10;;;;;;;30.56;19.47;99740.48;108931;1261;73051;-69
2023/05/29 08:33:30;;;;;;;3.60;2.80;;;;;;;27.30;21.78;99725.77;109071;1257;67745;-68
2023/05/29 08:35:58;;;;;;;6.20;2.90;;;;;;;23.81;25.66;99710.25;109342;1253;71105;-72
2023/05/29 08:38:27;;;;;;;4.00;3.00;;;;;;;23.70;25.76;99709.71;109166;1253;59026;-67
2023/05/29 08:40:54;;;;;;;6.60;3.70;;;;;;;23.51;25.80;99711.05;109130;1253;59101;-68
2023/05/29 08:43:24;;;;;;;5.50;3.00;;;;;;;23.35;26.49;99702.66;109130;1254;73175;-70
2023/05/29 08:45:58;;;;;;;7.90;3.50;;;;;;;23.43;25.87;99698.94;109072;1260;67256;-69
2023/05/29 08:48:25;;;;;;;5.30;3.50;;;;;;;24.36;26.11;99701.20;109016;1253;71595;-73
2023/05/29 08:50:52;;;;;;;3.40;3.10;;;;;;;26.82;22.76;99712.34;109237;1253;59190;-71
2023/05/29 08:53:21;;;;;;;4.90;2.90;;;;;;;27.23;22.55;99712.79;109437;1253;59928;-70
2023/05/29 08:55:52;;;;;;;5.20;3.10;;;;;;;27.61;22.21;99713.22;109125;1254;73376;-69
2023/05/29 08:58:23;;;;;;;4.70;3.40;;;;;;;27.64;21.78;99710.66;109366;1254;67560;-72
2023/05/29 09:00:50;;;;;;;7.20;3.00;;;;;;;27.88;21.89;99709.73;109319;1253;71158;-70
2023/05/29 09:03:21;;;;;;;4.80;3.20;;;;;;;28.40;21.53;99708.56;108886;1253;61442;-72
2023/05/29 09:05:49;;;;;;;9.60;3.40;;;;;;;28.72;21.11;99706.54;109116;1253;58836;-71
2023/05/29 09:08:16;;;;;;;4.80;3.20;;;;;;;28.84;20.97;99707.75;109308;1253;73284;-72
2023/05/29 09:10:44;;;;;;;5.40;3.60;;;;;;;28.58;21.10;99701.91;109124;1253;67241;-72
2023/05/29 09:13:11;;;;;;;;;;;;;;;28.78;21.71;99695.58;109367;1254;71040;-71
2023/05/29 09:15:42;;;;;;;7.20;3.80;;;;;;;29.42;21.28;99697.05;108994;1254;60181;-70
2023/05/29 09:18:10;;;;;;;7.20;3.60;;;;;;;29.31;20.67;99692.89;106289;1260;61394;-72
2023/05/29 09:20:37;;;;;;;4.60;3.60;;;;;;;29.22;20.77;99690.33;106073;1258;74549;-70
2023/05/29 09:23:05;;;;;;;4.80;3.40;;;;;;;29.01;21.01;99686.83;106096;1254;68383;-70
2023/05/29 09:25:33;;;;;;;7.40;3.70;;;;;;;28.93;20.77;99684.89;106244;1253;72433;-73
2023/05/29 09:28:02;;;;;;;7.70;4.10;;;;;;;28.90;20.78;99679.80;106190;1257;61221;-71
2023/05/29 09:30:43;;;;;;;7.20;3.90;;;;;;;28.77;20.58;99682.38;106071;1254;61353;-73
2023/05/29 09:33:12;;;;;;;7.40;3.80;;;;;;;29.13;20.37;99677.12;106018;1254;75599;-72
2023/05/29 09:35:43;;;;;;;5.50;3.80;;;;;;;29.14;20.34;99682.34;106140;1255;68574;-72
2023/05/29 09:38:16;;;;;;;9.50;4.00;;;;;;;29.44;20.24;99686.02;106120;1256;73015;-74
2023/05/29 09:41:04;;;;;;;6.00;3.70;;;;;;;29.61;19.83;99684.95;105916;1257;61269;-74
2023/05/29 09:43:32;;;;;;;5.50;3.90;;;;;;;29.90;19.40;99687.77;105984;1254;61323;-71
2023/05/29 09:46:00;;;;;;;6.00;4.00;;;;;;;30.17;19.20;99685.00;105730;1263;74598;-73
2023/05/29 09:48:28;;;;;;;6.20;3.60;;;;;;;30.68;18.92;99687.36;105856;1254;69007;-74
2023/05/29 09:50:57;;;;;;;6.40;4.20;;;;;;;30.97;18.90;99684.15;106178;1254;72546;-74
2023/05/29 09:53:25;;;;;;;13.10;4.70;;;;;;;30.70;18.96;99684.22;106099;1254;62263;-75
2023/05/29 09:56:10;;;;;;;6.60;4.10;;;;;;;30.33;18.88;99684.27;106016;1254;61327;-74
2023/05/29 09:58:38;;;;;;;6.10;3.90;;;;;;;29.89;19.32;99683.73;105763;1260;74539;-71
2023/05/29 10:01:05;;;;;;;9.00;3.80;;;;;;;29.99;19.32;99683.67;105909;1254;69157;-73
2023/05/29 10:03:34;;;;;;;6.40;4.00;;;;;;;30.17;19.31;99682.55;105747;1255;72953;-74
2023/05/29 10:06:02;;;;;;;8.50;4.00;;;;;;;30.17;19.60;99681.77;106029;1254;61339;-74
2023/05/29 10:08:32;;;;;;;6.00;4.00;;;;;;;30.36;19.33;99681.23;106006;1254;61337;-71
2023/05/29 10:11:01;;;;;;;13.30;4.80;;;;;;;30.66;18.88;99680.00;105809;1260;74622;-69
2023/05/29 10:13:36;;;;;;;6.40;3.90;;;;;;;30.63;18.60;99676.66;106014;1254;68292;-69
2023/05/29 10:16:03;;;;;;;6.80;4.40;;;;;;;30.61;18.78;99671.74;106033;1257;72500;-70
2023/05/29 10:18:37;;;;;;;12.80;5.10;;;;;;;30.64;18.32;99668.35;105773;1254;61442;-69
2023/05/29 10:21:03;;;;;;;9.40;4.60;;;;;;;30.44;18.39;99659.29;105827;1257;61187;-71
2023/05/29 10:23:31;;;;;;;;;;;;;;;30.05;18.86;99657.00;105666;1259;74425;-71
2023/05/29 10:26:27;;;;;;;7.20;4.10;;;;;;;29.84;19.28;99658.48;105834;1254;69031;-70
2023/05/29 10:29:29;;;;;;;10.30;5.00;;;;;;;29.70;19.31;99658.65;105745;1254;72608;-69
2023/05/29 10:32:06;;;;;;;5.50;4.20;;;;;;;30.04;19.13;99663.85;105680;1253;61807;-71
2023/05/29 10:35:05;;;;;;;5.70;3.60;;;;;;;30.15;19.14;99664.91;105831;1254;62211;-70
2023/05/29 10:38:03;;;;;;;8.20;4.70;;;;;;;29.98;19.11;99664.06;105709;1254;74537;-74
2023/05/29 10:40:31;;;;;;;11.40;4.50;;;;;;;29.77;18.89;99661.41;105197;1261;68430;-77
2023/05/29 10:42:58;;;;;;;6.60;4.20;;;;;;;29.97;18.70;99655.42;105361;1265;72418;-70
2023/05/29 10:45:31;;;;;;;10.40;4.70;;;;;;;29.97;18.63;99649.34;105148;1266;61345;-68
2023/05/29 10:48:08;;;;;;;11.90;4.60;;;;;;;30.06;18.60;99645.77;105225;1260;61438;-72
2023/05/29 10:50:36;;;;;;;13.30;6.50;;;;;;;30.48;18.83;99638.41;105137;1265;74613;-70
2023/05/29 10:53:06;;;;;;;12.70;5.00;;;;;;;30.73;19.07;99638.89;105327;1260;68610;-72
2023/05/29 10:55:34;;;;;;;7.60;4.60;;;;;;;31.13;19.01;99638.84;105326;1259;72686;-74
2023/05/29 10:58:31;;;;;;;8.50;4.60;;;;;;;31.27;18.32;99640.08;105292;1260;61428;-69
2023/05/29 11:00:58;;;;;;;20.00;4.70;;;;;;;31.00;18.53;99645.67;105078;1270;61233;-72
2023/05/29 11:03:31;;;;;;;6.00;4.00;;;;;;;31.31;18.29;99645.41;104931;1270;74644;-73
2023/05/29 11:06:07;;;;;;;6.30;4.50;;;;;;;31.37;17.98;99639.16;105158;1267;68634;-70
2023/05/29 11:08:35;;;;;;;17.20;5.40;;;;;;;31.32;17.73;99640.48;105158;1267;71501;-72
2023/05/29 11:11:11;;;;;;;140.60;15.50;;;;;;;31.65;17.51;99638.67;105127;1268;61428;-71
2023/05/29 11:13:40;;;;;;;7.10;4.70;;;;;;;32.09;17.63;99638.71;105207;1266;61315;-71
2023/05/29 11:16:19;;;;;;;16.30;5.30;;;;;;;32.12;16.89;99638.86;105208;1268;75405;-71
2023/05/29 11:18:48;;;;;;;9.50;4.80;;;;;;;31.84;17.40;99631.73;105208;1260;68691;-70
2023/05/29 11:21:32;;;;;;;21.00;6.10;;;;;;;31.05;18.00;99622.09;105295;1264;72340;-70
2023/05/29 11:24:07;;;;;;;7.80;4.70;;;;;;;30.42;19.04;99621.27;105298;1260;61307;-69
2023/05/29 11:26:37;;;;;;;7.50;4.50;;;;;;;30.77;18.72;99620.61;105373;1260;62385;-70
2023/05/29 11:29:10;;;;;;;10.40;4.80;;;;;;;30.32;18.65;99608.50;105270;1260;74910;-70
2023/05/29 11:31:37;;;;;;;7.10;5.00;;;;;;;29.94;18.68;99605.36;105249;1264;69058;-70
2023/05/29 11:34:05;;;;;;;7.20;4.70;;;;;;;30.10;18.83;99606.44;105309;1261;72773;-71